sim
Sign-in with your pilot id or email,
or register
Callsign
Passwort

Schedule Details

Flight Number: DLH2382 (1)
Departure: Munich Airport (EDDM) at 06:20
Arrival: Geneva International Airport (LSGG) at 07:35
Route: Lufthansa Passenger Schedule. Enter filed route here before submitting Pirep.

Weather Information
Getting current METAR information for EDDM 221320Z 05004KT 340V140 9999 FEW040 24/14 Q1012 NOSIG
Getting current METAR information for LSGG 221320Z VRB07KT 9999 FEW040 24/13 Q1012 NOSIG

Schedule Frequency

Route Map